METAR Data
IDs: Format: Raw Decoded Include TAF

Data at: 2150 UTC 10 May 2021

KLIC 102137Z AUTO 13012KT 5SM BR SCT006 BKN014 OVC029 04/02 A3008 RMK AO2 P0001 T00390022
KLIC 102125Z AUTO 14013KT 4SM BR SCT005 BKN023 OVC028 04/02 A3009 RMK AO2 P0001 T00390022
KLIC 102112Z AUTO 14013KT 3SM BR SCT006 BKN012 OVC023 04/03 A3008 RMK AO2 P0001 T00390028
KLIC 102108Z AUTO 14014KT 2 1/2SM BR BKN006 BKN012 OVC023 04/03 A3008 RMK AO2 P0001 T00390028
KLIC 102055Z AUTO 14011KT 2SM BR BKN004 BKN008 OVC013 04/03 A3009 RMK AO2 RAE13B46E55 SLP180 P0002 60003 T00390028 53002
KLIC 102044Z AUTO 14011KT 2SM BR BKN006 BKN013 OVC018 04/03 A3009 RMK AO2 RAE13 P0002 T00390028
KLIC 102041Z AUTO 14011KT 2 1/2SM BR SCT006 BKN015 OVC020 04/03 A3009 RMK AO2 RAE13 P0002 T00390028
KLIC 101955Z AUTO 15012KT 2 1/2SM -RA BR BKN006 OVC012 04/03 A3008 RMK AO2 RAE1858B54 CIG 004V009 SLP178 P0001 T00390028
KLIC 101939Z AUTO 14012KT 3SM BR BKN008 OVC012 04/02 A3008 RMK AO2 RAE1858 CIG 004V011 P0001 T00390022
KLIC 101931Z AUTO 15012KT 2 1/2SM BR SCT006 OVC011 04/02 A3008 RMK AO2 RAE1858 CIG 009V012 P0001 T00390022
KLIC 101915Z AUTO 14014KT 4SM BR BKN006 OVC010 04/02 A3008 RMK AO2 RAE1858 CIG 004V008 P0001 T00390022
KLIC 101855Z AUTO 14013KT 2 1/2SM -RA BR BKN006 OVC010 04/02 A3007 RMK AO2 RAB50 CIG 004V009 SLP173 P0000 T00390022
KLIC 101847Z AUTO 14013KT 3SM BR BKN006 OVC010 04/02 A3007 RMK AO2 CIG 004V009 T00390022
KLIC 101825Z AUTO 14013KT 2SM BR BKN007 OVC010 03/02 A3009 RMK AO2 CIG 004V010 T00330022
KLIC 101755Z AUTO 14017KT 8SM OVC006 03/02 A3008 RMK AO2 PK WND 13029/1659 SLP178 60001 T00330017 10033 20022 56004
KLIC 101752Z AUTO 13017KT 9SM OVC006 03/02 A3008 RMK AO2 PK WND 13029/1659 CIG 004V009
KLIC 101742Z AUTO 14018G26KT 5SM BR OVC005 03/02 A3009 RMK AO2 PK WND 13029/1659 CIG 003V008 T00330017
KLIC 101731Z AUTO 13020KT 2 1/2SM BR OVC005 03/02 A3008 RMK AO2 PK WND 13029/1659 CIG 003V009 T00280017
KLIC 101714Z AUTO 14020G26KT 8SM OVC005 03/02 A3009 RMK AO2 PK WND 13029/1659 CIG 003V008 T00280017
KLIC 101707Z AUTO 14019G29KT 5SM BR OVC004 03/02 A3009 RMK AO2 PK WND 13029/1659 CIG 003V010 T00280017
KLIC 101655Z AUTO 14021G29KT 2 1/2SM BR OVC004 03/02 A3009 RMK AO2 PK WND 13029/1636 RAB36E45 CIG 003V007 SLP181 P0001 T00330017
KLIC 101643Z AUTO 14019G29KT 2SM -RA BR OVC004 03/02 A3009 RMK AO2 PK WND 13029/1636 RAB36 CIG 003V008 P0001 T00330022
KLIC 101629Z AUTO 13021KT 2SM BR OVC005 03/02 A3009 RMK AO2 PK WND 13027/1628 CIG 003V007 T00330022
KLIC 101611Z AUTO 14020KT 3SM BR OVC005 03/02 A3009 RMK AO2 CIG 004V010 T00330022
KLIC 101555Z AUTO 14019G25KT 2 1/2SM BR BKN005 OVC008 03/02 A3010 RMK AO2 PK WND 13026/1518 UPB00E10 CIG 003V007 SLP183 P0000 T00330017
KLIC 101535Z AUTO 14017KT 2SM BR OVC005 03/02 A3011 RMK AO2 PK WND 13026/1518 UPB00E10 P0000 T00280017
KLIC 101509Z AUTO 13018KT 2 1/2SM UP BR OVC004 02/01 A3011 RMK AO2 UPB00 P0000 T00220011
KLIC 101502Z AUTO 14017KT 1 3/4SM UP BR BKN004 OVC013 02/01 A3011 RMK AO2 UPB00 P0000 T00220011
KLIC 101455Z AUTO 13016KT 1 1/2SM BR OVC005 02/01 A3011 RMK AO2 SLP188 T00220011 50001
KLIC 101446Z AUTO 13018G24KT 1 3/4SM BR BKN005 OVC009 02/01 A3012 RMK AO2 T00220011
KLIC 101423Z AUTO 13015KT 1 3/4SM BR OVC004 02/01 A3012 RMK AO2 T00220011
KLIC 101413Z AUTO 13017KT 2SM BR OVC004 02/01 A3012 RMK AO2 T00220011
KLIC 101355Z AUTO 13018G24KT 6SM BR OVC004 02/01 A3012 RMK AO2 PK WND 13026/1330 SLP190 T00220011
KLIC 101312Z AUTO 13017G23KT 3SM BR OVC004 02/01 A3011 RMK AO2 CIG 003V008 T00220011
KLIC 101305Z AUTO 13014G22KT 2 1/2SM BR OVC004 02/01 A3011 RMK AO2 T00220011
KLIC 101255Z AUTO 13015KT 4SM BR OVC004 02/01 A3011 RMK AO2 CIG 002V008 SLP186 T00220011
KLIC 101229Z AUTO 13014KT 10SM OVC004 02/01 A3011 RMK AO2 T00220011
KLIC 101207Z AUTO 13016G22KT 10SM BKN005 OVC009 03/02 A3011 RMK AO2 CIG 004V008 T00280017
KLIC 101155Z AUTO 14015KT 10SM OVC008 03/02 A3011 RMK AO2 CIG 005V012 SLP181 60000 T00330017 10056 20028 53000
KLIC 101055Z AUTO 15014KT 10SM OVC007 03/02 A3011 RMK AO2 UPE01RAB26E48 CIG 006V012 SLP179 P0000 T00330017
KLIC 100955Z AUTO 16008KT 10SM UP BKN008 BKN018 OVC022 03/01 A3011 RMK AO2 UPB48 CIG 006V013 SLP179 P0000 T00280011
KLIC 100948Z AUTO 15009G18KT 10SM UP SCT008 BKN014 OVC022 03/01 A3011 RMK AO2 UPB48 P0000 T00280011
KLIC 100904Z AUTO 20013KT 10SM SCT017 OVC028 04/01 A3010 RMK AO2 T00390011
KLIC 100855Z AUTO 19012KT 10SM FEW019 OVC030 04/01 A3011 RMK AO2 SLP178 60000 T00440011 55005
KLIC 100755Z AUTO 17007KT 10SM SCT029 OVC034 04/02 A3011 RMK AO2 RAB18E38 SLP177 P0000 T00440017
KLIC 100742Z AUTO 17008KT 10SM BKN027 OVC041 04/02 A3011 RMK AO2 RAB18E38 P0000 T00440017
KLIC 100655Z AUTO 17011KT 10SM FEW017 BKN055 OVC080 04/01 A3012 RMK AO2 RAB25E43 SLP185 P0000 T00440011 400940028
KLIC 100555Z AUTO 15008KT 10SM OVC040 06/01 A3013 RMK AO2 SLP184 60000 T00560011 10083 20056 51005
KLIC 100455Z AUTO 14009KT 10SM OVC039 06/01 A3012 RMK AO2 SLP181 T00560006
KLIC 100355Z AUTO 12007KT 10SM OVC042 06/01 A3012 RMK AO2 SLP187 T00560011
KLIC 100255Z AUTO 13008KT 10SM OVC044 06/02 A3011 RMK AO2 RAE21 SLP183 P0000 60000 T00610017 53009
KLIC 100155Z AUTO 16008KT 10SM -RA OVC045 06/02 A3010 RMK AO2 RAB33 SLP179 P0000 T00610017
KLIC 100055Z AUTO 17008KT 10SM BKN060 OVC070 08/M02 A3008 RMK AO2 SLP170 T00781017
KLIC 092355Z AUTO 15012KT 10SM OVC055 08/M01 A3008 RMK AO2 SLP168 T00831011 10094 20072 53003
KLIC 092255Z AUTO 13009KT 10SM BKN055 OVC070 09/M02 A3006 RMK AO2 SLP161 T00891017
KLIC 092155Z AUTO 14007KT 10SM FEW042 OVC060 09/M01 A3006 RMK AO2 SLP161 T00891011
KLIC 092055Z AUTO 11004KT 10SM OVC055 09/M01 A3007 RMK AO2 SLP160 T00891011 58013
KLIC 091955Z AUTO 12004KT 10SM FEW030 OVC055 08/M01 A3008 RMK AO2 SLP165 T00831006
KLIC 091927Z AUTO VRB06KT 10SM SCT028 OVC050 08/01 A3008 RMK AO2 T00830006
KLIC 091915Z AUTO VRB04KT 10SM BKN028 OVC055 08/01 A3009 RMK AO2 T00780006
KLIC 091855Z AUTO 14004KT 10SM SCT028 OVC055 07/00 A3010 RMK AO2 SLP171 T00720000
KLIC 091755Z AUTO VRB03KT 10SM OVC055 07/01 A3011 RMK AO2 SLP176 T00720006 10072 20033 56002
KLIC 091734Z AUTO 07006KT 10SM FEW022 OVC055 07/01 A3011 RMK AO2 T00720006
KLIC 091727Z AUTO 07005KT 10SM BKN021 OVC055 07/01 A3011 RMK AO2 T00720011
KLIC 091655Z AUTO 05007KT 10SM FEW019 OVC060 07/01 A3011 RMK AO2 SLP173 T00720011
KLIC 091625Z AUTO 36008KT 10SM SCT016 BKN070 OVC080 06/01 A3011 RMK AO2 T00610011
KLIC 091555Z AUTO 03005KT 10SM BKN017 OVC055 06/01 A3012 RMK AO2 SLP177 T00560011
KLIC 091455Z AUTO 02009KT 10SM BKN016 OVC060 05/01 A3012 RMK AO2 SLP173 T00500011 51012
KLIC 091452Z AUTO 02008KT 10SM BKN016 BKN060 OVC090 05/01 A3012 RMK AO2
KLIC 091355Z AUTO 03009KT 10SM FEW015 OVC055 04/01 A3011 RMK AO2 SLP173 T00440006
KLIC 091255Z AUTO 32007KT 10SM OVC055 04/01 A3008 RMK AO2 SLP161 T00390011
KLIC 091155Z AUTO 35006KT 10SM FEW014 BKN050 BKN075 03/01 A3005 RMK AO2 SLP153 70015 T00330011 10072 20028 50003
KLIC 091126Z AUTO 01012KT 10SM SCT014 SCT018 OVC060 03/01 A3005 RMK AO2 T00330006
KLIC 091115Z AUTO 02008KT 10SM BKN014 OVC019 04/01 A3005 RMK AO2 T00390011
KLIC 091055Z AUTO 02010KT 10SM OVC017 04/01 A3006 RMK AO2 SLP158 T00390011
KLIC 091036Z AUTO 03010KT 10SM OVC016 04/01 A3006 RMK AO2 T00390011
KLIC 090955Z AUTO 01013KT 10SM OVC014 04/02 A3005 RMK AO2 SLP137 T00440022